createdAt,value
2018-08-30T00:01:29.748Z,52.88
2018-08-30T00:03:56.073Z,53.02
2018-08-30T00:06:22.495Z,53.10
2018-08-30T00:08:48.893Z,53.03
2018-08-30T00:11:15.238Z,52.88
2018-08-30T00:13:41.549Z,52.99
2018-08-30T00:16:07.902Z,52.92
2018-08-30T00:18:34.236Z,52.98
2018-08-30T00:21:00.567Z,53.10
2018-08-30T00:23:26.899Z,53.05
2018-08-30T00:25:53.240Z,53.11
2018-08-30T00:28:19.600Z,53.03
2018-08-30T00:30:45.958Z,53.22
2018-08-30T00:33:12.323Z,53.25
2018-08-30T00:35:38.654Z,53.16
2018-08-30T00:38:04.987Z,53.14
2018-08-30T00:40:31.419Z,53.14
2018-08-30T00:42:57.764Z,53.17
2018-08-30T00:45:24.107Z,53.11
2018-08-30T00:47:50.493Z,53.22
2018-08-30T00:50:16.834Z,53.24
2018-08-30T00:52:43.203Z,53.35
2018-08-30T00:55:09.536Z,53.24
2018-08-30T00:57:35.863Z,53.22
2018-08-30T01:00:02.203Z,53.21
2018-08-30T01:02:28.557Z,53.31
2018-08-30T01:04:54.898Z,53.60
2018-08-30T01:07:21.254Z,53.62
2018-08-30T01:09:47.590Z,53.75
2018-08-30T01:12:13.926Z,53.84
2018-08-30T01:14:40.296Z,54.00
2018-08-30T01:17:06.653Z,54.21
2018-08-30T01:19:33.007Z,54.44
2018-08-30T01:21:59.363Z,54.35
2018-08-30T01:24:25.744Z,54.51
2018-08-30T01:26:52.083Z,54.46
2018-08-30T01:29:18.416Z,54.49
2018-08-30T01:31:44.743Z,54.47
2018-08-30T01:34:11.072Z,54.52
2018-08-30T01:36:37.403Z,54.49
2018-08-30T01:39:03.720Z,54.56
2018-08-30T01:41:30.056Z,54.60
2018-08-30T01:43:56.388Z,54.47
2018-08-30T01:46:22.767Z,54.53
2018-08-30T01:48:49.112Z,54.45
2018-08-30T01:51:15.490Z,54.46
2018-08-30T01:53:41.826Z,54.44
2018-08-30T01:56:08.182Z,54.61
2018-08-30T01:58:34.503Z,54.53
2018-08-30T02:01:00.833Z,54.42
2018-08-30T02:03:27.193Z,54.39
2018-08-30T02:05:53.524Z,54.51
2018-08-30T02:08:19.881Z,54.33
2018-08-30T02:10:46.196Z,54.52
2018-08-30T02:13:12.537Z,54.42
2018-08-30T02:15:38.880Z,54.52
2018-08-30T02:18:05.243Z,54.44
2018-08-30T02:20:31.608Z,54.46
2018-08-30T02:22:57.972Z,54.45
2018-08-30T02:25:24.333Z,54.62
2018-08-30T02:27:50.664Z,54.34
2018-08-30T02:30:17.024Z,54.48
2018-08-30T02:32:43.355Z,54.53
2018-08-30T02:35:09.683Z,54.57
2018-08-30T02:37:36.032Z,54.53
2018-08-30T02:40:02.407Z,54.58
2018-08-30T02:42:28.748Z,54.48
2018-08-30T02:44:55.095Z,54.65
2018-08-30T02:47:21.426Z,54.56
2018-08-30T02:49:47.809Z,54.60
2018-08-30T02:52:14.136Z,54.56
2018-08-30T02:54:40.468Z,54.58
2018-08-30T02:57:06.832Z,54.71
2018-08-30T02:59:33.193Z,54.71
2018-08-30T03:01:59.531Z,54.53
2018-08-30T03:04:25.851Z,54.72
2018-08-30T03:06:52.195Z,54.69
2018-08-30T03:09:18.637Z,54.56
2018-08-30T03:11:44.982Z,54.50
2018-08-30T03:14:11.325Z,54.38
2018-08-30T03:16:37.686Z,54.18
2018-08-30T03:19:04.016Z,54.09
2018-08-30T03:21:30.356Z,53.99
2018-08-30T03:23:56.718Z,54.04
2018-08-30T03:26:23.120Z,53.97
2018-08-30T03:28:49.501Z,53.72
2018-08-30T03:31:15.835Z,53.87
2018-08-30T03:33:42.163Z,53.88
2018-08-30T03:36:08.547Z,53.96
2018-08-30T03:38:34.880Z,53.65
2018-08-30T03:41:01.286Z,53.75
2018-08-30T03:43:27.639Z,53.61
2018-08-30T03:45:54.050Z,53.71
2018-08-30T03:48:20.403Z,53.82
2018-08-30T03:50:46.784Z,53.53
2018-08-30T03:53:13.172Z,53.63
2018-08-30T03:55:39.523Z,53.47
2018-08-30T03:58:05.853Z,53.58
2018-08-30T04:00:32.231Z,53.57
2018-08-30T04:02:58.604Z,53.52
2018-08-30T04:05:24.929Z,53.52
2018-08-30T04:07:51.332Z,53.51
2018-08-30T04:10:17.738Z,53.40
2018-08-30T04:12:44.128Z,53.28
2018-08-30T04:15:10.457Z,53.36
2018-08-30T04:17:36.861Z,53.31
2018-08-30T04:20:03.187Z,53.13
2018-08-30T04:22:29.695Z,52.96
2018-08-30T04:24:56.059Z,52.86
2018-08-30T04:27:22.436Z,52.84
2018-08-30T04:29:48.840Z,52.65
2018-08-30T04:32:15.180Z,52.54
2018-08-30T04:34:41.510Z,52.50
2018-08-30T04:37:07.872Z,52.42
2018-08-30T04:39:34.198Z,51.97
2018-08-30T04:42:00.527Z,51.93
2018-08-30T04:44:26.901Z,51.74
2018-08-30T04:46:53.236Z,51.80
2018-08-30T04:49:19.556Z,51.61
2018-08-30T04:51:45.929Z,51.54
2018-08-30T04:54:12.355Z,51.50
2018-08-30T04:56:38.730Z,51.53
2018-08-30T04:59:05.148Z,51.48
2018-08-30T05:01:31.487Z,51.49
2018-08-30T05:03:57.863Z,51.42
2018-08-30T05:06:24.215Z,51.35
2018-08-30T05:08:50.576Z,51.42
2018-08-30T05:11:16.957Z,51.42
2018-08-30T05:13:43.372Z,51.33
2018-08-30T05:16:09.762Z,51.30
2018-08-30T05:18:36.120Z,51.29
2018-08-30T05:21:02.509Z,51.33
2018-08-30T05:23:28.858Z,51.46
2018-08-30T05:25:55.261Z,51.31
2018-08-30T05:28:21.610Z,51.52
2018-08-30T05:30:47.984Z,51.71
2018-08-30T05:33:14.370Z,51.84
2018-08-30T05:35:40.783Z,51.76
2018-08-30T05:38:07.184Z,51.84
2018-08-30T05:40:33.603Z,51.75
2018-08-30T05:42:59.931Z,51.79
2018-08-30T05:45:26.304Z,51.61
2018-08-30T05:47:52.660Z,51.59
2018-08-30T05:50:19.036Z,51.62
2018-08-30T05:52:45.394Z,51.60
2018-08-30T05:55:11.770Z,51.65
2018-08-30T05:57:38.143Z,51.25
2018-08-30T06:00:04.516Z,51.05
2018-08-30T06:02:30.920Z,51.05
2018-08-30T06:04:57.261Z,51.11
2018-08-30T06:07:23.752Z,51.02
2018-08-30T06:09:50.076Z,51.05
2018-08-30T06:12:16.535Z,51.12
2018-08-30T06:14:42.908Z,50.84
2018-08-30T06:17:09.281Z,50.98
2018-08-30T06:19:35.689Z,50.90
2018-08-30T06:22:02.075Z,50.78
2018-08-30T06:24:28.487Z,50.72
2018-08-30T06:26:54.885Z,50.65
2018-08-30T06:29:21.268Z,50.83
2018-08-30T06:31:47.615Z,50.87
2018-08-30T06:34:13.964Z,50.84
2018-08-30T06:36:40.371Z,50.79
2018-08-30T06:39:06.775Z,50.67
2018-08-30T06:41:33.121Z,50.62
2018-08-30T06:43:59.533Z,50.58
2018-08-30T06:46:25.968Z,50.56
2018-08-30T06:48:52.408Z,50.46
2018-08-30T06:51:18.727Z,50.78
2018-08-30T06:53:45.046Z,50.39
2018-08-30T06:56:11.449Z,50.40
2018-08-30T06:58:37.802Z,50.42
2018-08-30T07:01:04.174Z,50.54
2018-08-30T07:03:30.554Z,50.74
2018-08-30T07:05:56.925Z,50.56
2018-08-30T07:08:23.386Z,50.79
2018-08-30T07:10:49.821Z,50.67
2018-08-30T07:13:16.224Z,50.30
2018-08-30T07:15:42.656Z,50.29
2018-08-30T07:18:09.005Z,50.35
2018-08-30T07:20:35.419Z,50.55
2018-08-30T07:23:01.840Z,50.19
2018-08-30T07:25:28.219Z,50.26
2018-08-30T07:27:54.699Z,50.22
2018-08-30T07:30:21.149Z,50.12
2018-08-30T07:32:47.542Z,50.28
2018-08-30T07:35:13.985Z,50.12
2018-08-30T07:37:40.342Z,50.30
2018-08-30T07:40:06.744Z,50.27
2018-08-30T07:42:33.101Z,50.18
2018-08-30T07:44:59.496Z,50.20
2018-08-30T07:47:25.863Z,50.31
2018-08-30T07:49:52.298Z,50.21
2018-08-30T07:52:18.638Z,50.29
2018-08-30T07:54:44.971Z,50.28
2018-08-30T07:57:11.363Z,50.18
2018-08-30T07:59:37.791Z,50.25
2018-08-30T08:02:04.225Z,50.31
2018-08-30T08:04:30.856Z,50.47
2018-08-30T08:06:57.463Z,50.42
2018-08-30T08:09:23.863Z,50.03
2018-08-30T08:11:50.319Z,50.27
2018-08-30T08:14:16.727Z,50.14
2018-08-30T08:16:43.166Z,50.16
2018-08-30T08:19:09.582Z,50.27
2018-08-30T08:21:36.008Z,50.19
2018-08-30T08:24:02.410Z,50.31
2018-08-30T08:26:28.777Z,50.23
2018-08-30T08:28:55.195Z,50.22
2018-08-30T08:31:21.607Z,50.11
2018-08-30T08:33:47.944Z,50.20
2018-08-30T08:36:14.311Z,50.20
2018-08-30T08:38:40.958Z,50.10
2018-08-30T08:41:07.319Z,50.47
2018-08-30T08:43:33.826Z,50.60
2018-08-30T08:46:00.179Z,50.68
2018-08-30T08:48:26.539Z,50.23
2018-08-30T08:50:52.982Z,50.26
2018-08-30T08:53:19.366Z,50.31
2018-08-30T08:55:45.730Z,50.21
2018-08-30T08:58:12.083Z,50.20
2018-08-30T09:00:38.540Z,50.29
2018-08-30T09:03:04.896Z,49.98
2018-08-30T09:05:31.244Z,50.06
2018-08-30T09:07:57.720Z,49.96
2018-08-30T09:10:24.137Z,49.93
2018-08-30T09:12:50.536Z,49.86
2018-08-30T09:15:16.885Z,49.90
2018-08-30T09:17:43.287Z,49.83
2018-08-30T09:20:09.625Z,49.63
2018-08-30T09:22:36.001Z,49.60
2018-08-30T09:25:02.325Z,49.43
2018-08-30T09:27:28.693Z,49.56
2018-08-30T09:29:55.109Z,49.40
2018-08-30T09:32:21.555Z,49.50
2018-08-30T09:34:47.929Z,49.47
2018-08-30T09:37:14.287Z,49.50
2018-08-30T09:39:41.497Z,49.32
2018-08-30T09:42:07.868Z,49.53
2018-08-30T09:44:34.329Z,49.45
2018-08-30T09:47:00.815Z,49.38
2018-08-30T09:49:27.319Z,49.36
2018-08-30T09:51:53.729Z,49.25
2018-08-30T09:54:20.066Z,49.30
2018-08-30T09:56:46.473Z,49.24
2018-08-30T09:59:12.878Z,49.27
2018-08-30T10:01:39.259Z,48.90
2018-08-30T10:04:05.756Z,48.74
2018-08-30T10:06:32.097Z,48.84
2018-08-30T10:08:58.415Z,48.70
2018-08-30T10:11:24.825Z,48.66
2018-08-30T10:13:51.153Z,48.42
2018-08-30T10:16:18.536Z,48.26
2018-08-30T10:18:45.017Z,48.18
2018-08-30T10:21:11.416Z,47.92
2018-08-30T10:23:37.870Z,47.93
2018-08-30T10:26:04.202Z,47.68
2018-08-30T10:28:30.529Z,47.68
2018-08-30T10:30:56.859Z,47.81
2018-08-30T10:33:23.188Z,47.67
2018-08-30T10:35:49.564Z,47.57
2018-08-30T10:38:15.986Z,47.27
2018-08-30T10:40:42.350Z,47.27
2018-08-30T10:43:08.685Z,47.10
2018-08-30T10:45:37.096Z,47.10
2018-08-30T10:48:03.730Z,47.05
2018-08-30T10:50:30.094Z,47.12
2018-08-30T10:52:56.440Z,47.07
2018-08-30T10:55:22.825Z,47.06
2018-08-30T10:57:49.257Z,46.85
2018-08-30T11:00:15.591Z,46.64
2018-08-30T11:02:41.988Z,46.53
2018-08-30T11:05:08.326Z,46.55
2018-08-30T11:07:35.664Z,46.54
2018-08-30T11:10:02.109Z,46.60
2018-08-30T11:12:28.485Z,46.47
2018-08-30T11:14:54.851Z,46.47
2018-08-30T11:17:21.203Z,46.32
2018-08-30T11:19:47.641Z,46.36
2018-08-30T11:22:14.037Z,46.05
2018-08-30T11:24:40.443Z,45.95
2018-08-30T11:27:06.834Z,46.10
2018-08-30T11:29:33.185Z,45.95
2018-08-30T11:31:59.537Z,46.13
2018-08-30T11:34:25.895Z,45.98
2018-08-30T11:36:52.278Z,45.72
2018-08-30T11:39:18.600Z,45.72
2018-08-30T11:41:45.044Z,45.39
2018-08-30T11:44:11.372Z,45.32
2018-08-30T11:46:37.723Z,45.11
2018-08-30T11:49:04.091Z,45.12
2018-08-30T11:51:30.505Z,45.08
2018-08-30T11:53:56.871Z,45.25
2018-08-30T11:56:23.258Z,45.15
2018-08-30T11:58:49.672Z,45.12
2018-08-30T12:01:16.083Z,45.15
2018-08-30T12:03:42.425Z,44.72
2018-08-30T12:06:08.758Z,44.34
2018-08-30T12:08:35.123Z,44.14
2018-08-30T12:11:01.613Z,43.74
2018-08-30T12:13:27.935Z,44.11
2018-08-30T12:15:54.275Z,43.91
2018-08-30T12:18:20.619Z,44.08
2018-08-30T12:20:47.243Z,43.95
2018-08-30T12:23:13.944Z,44.02
2018-08-30T12:25:40.300Z,43.59
2018-08-30T12:28:06.634Z,43.08
2018-08-30T12:30:32.971Z,43.45
2018-08-30T12:32:59.382Z,43.08
2018-08-30T12:35:26.493Z,42.78
2018-08-30T12:37:52.852Z,43.00
2018-08-30T12:40:19.318Z,42.87
2018-08-30T12:42:45.702Z,42.64
2018-08-30T12:45:12.096Z,42.66
2018-08-30T12:47:38.468Z,42.72
2018-08-30T12:50:04.915Z,42.50
2018-08-30T12:52:31.362Z,42.80
2018-08-30T12:54:57.770Z,42.78
2018-08-30T12:57:24.202Z,42.60
2018-08-30T12:59:50.487Z,42.59
2018-08-30T13:02:17.055Z,42.55
2018-08-30T13:04:43.603Z,42.46
2018-08-30T13:07:09.870Z,42.30
2018-08-30T13:09:36.300Z,42.37
2018-08-30T13:12:03.045Z,42.19
2018-08-30T13:14:29.182Z,42.04
2018-08-30T13:16:55.678Z,41.82
2018-08-30T13:19:23.047Z,41.77
2018-08-30T13:21:49.370Z,41.58
2018-08-30T13:24:15.788Z,41.57
2018-08-30T13:26:42.086Z,41.43
2018-08-30T13:29:08.505Z,41.73
2018-08-30T13:31:34.922Z,41.98
2018-08-30T13:34:01.394Z,41.60
2018-08-30T13:36:27.898Z,41.51
2018-08-30T13:38:54.261Z,41.20
2018-08-30T13:41:20.960Z,41.49
2018-08-30T13:43:47.107Z,41.06
2018-08-30T13:46:13.343Z,41.14
2018-08-30T13:48:39.935Z,40.80
2018-08-30T13:51:06.277Z,40.81
2018-08-30T13:53:32.762Z,40.78
2018-08-30T13:55:59.158Z,40.95
2018-08-30T13:58:25.504Z,41.17
2018-08-30T14:00:52.016Z,41.07
2018-08-30T14:03:18.149Z,40.92
2018-08-30T14:05:44.682Z,40.88
2018-08-30T14:08:11.179Z,41.23
2018-08-30T14:10:37.486Z,41.36
2018-08-30T14:13:03.824Z,40.88
2018-08-30T14:15:30.348Z,40.93
2018-08-30T14:17:56.430Z,40.86
2018-08-30T14:20:22.770Z,41.20
2018-08-30T14:22:49.143Z,40.76
2018-08-30T14:25:15.613Z,40.93
2018-08-30T14:27:41.984Z,40.77
2018-08-30T14:30:08.367Z,40.98
2018-08-30T14:32:34.698Z,40.73
2018-08-30T14:35:01.028Z,41.00
2018-08-30T14:37:27.494Z,40.89
2018-08-30T14:39:53.750Z,40.74
2018-08-30T14:42:20.087Z,40.78
2018-08-30T14:44:46.443Z,40.59
2018-08-30T14:47:13.022Z,40.45
2018-08-30T14:49:39.223Z,40.45
2018-08-30T14:52:05.589Z,40.86
2018-08-30T14:54:32.026Z,40.43
2018-08-30T14:56:58.320Z,40.58
2018-08-30T14:59:24.828Z,40.68
2018-08-30T15:01:51.028Z,40.50
2018-08-30T15:04:17.404Z,40.59
2018-08-30T15:06:43.787Z,40.50
2018-08-30T15:09:10.168Z,40.63
2018-08-30T15:11:36.617Z,40.53
2018-08-30T15:14:02.955Z,40.75
2018-08-30T15:16:29.386Z,40.72
2018-08-30T15:18:55.802Z,40.79
2018-08-30T15:21:22.109Z,40.89
2018-08-30T15:23:48.472Z,40.95
2018-08-30T15:26:14.895Z,40.82
2018-08-30T15:28:41.198Z,40.98
2018-08-30T15:31:07.573Z,41.01
2018-08-30T15:33:33.934Z,41.09
2018-08-30T15:36:00.281Z,41.16
2018-08-30T15:38:26.781Z,41.33
2018-08-30T15:40:53.150Z,41.31
2018-08-30T15:43:19.544Z,41.34
2018-08-30T15:45:45.926Z,41.57
2018-08-30T15:48:12.510Z,41.67
2018-08-30T15:50:38.763Z,41.68
2018-08-30T15:53:05.118Z,41.46
2018-08-30T15:55:31.518Z,41.55
2018-08-30T15:57:57.870Z,41.83
2018-08-30T16:00:24.237Z,41.81
2018-08-30T16:02:50.610Z,41.72
2018-08-30T16:05:17.148Z,42.08
2018-08-30T16:07:43.400Z,41.96
2018-08-30T16:10:09.805Z,42.01
2018-08-30T16:12:36.142Z,42.04
2018-08-30T16:15:02.509Z,42.01
2018-08-30T16:17:28.851Z,42.05
2018-08-30T16:19:55.181Z,42.22
2018-08-30T16:22:21.530Z,42.39
2018-08-30T16:24:47.997Z,42.18
2018-08-30T16:27:14.308Z,42.34
2018-08-30T16:29:40.652Z,42.41
2018-08-30T16:32:07.004Z,42.48
2018-08-30T16:34:33.375Z,42.61
2018-08-30T16:36:59.736Z,42.73
2018-08-30T16:39:26.067Z,42.75
2018-08-30T16:41:52.392Z,42.89
2018-08-30T16:44:18.727Z,42.96
2018-08-30T16:46:45.067Z,43.12
2018-08-30T16:49:11.386Z,43.31
2018-08-30T16:51:37.716Z,43.39
2018-08-30T16:54:04.072Z,43.71
2018-08-30T16:56:30.405Z,43.87
2018-08-30T16:58:56.754Z,43.96
2018-08-30T17:01:23.110Z,43.96
2018-08-30T17:03:49.519Z,44.09
2018-08-30T17:06:15.944Z,44.31
2018-08-30T17:08:42.408Z,44.41
2018-08-30T17:11:09.431Z,44.41
2018-08-30T17:13:35.753Z,44.33
2018-08-30T17:16:02.130Z,44.33
2018-08-30T17:18:28.489Z,44.23
2018-08-30T17:20:54.821Z,44.35
2018-08-30T17:23:21.175Z,44.31
2018-08-30T17:25:47.627Z,44.28
2018-08-30T17:28:14.115Z,44.26
2018-08-30T17:30:40.472Z,44.21
2018-08-30T17:33:06.869Z,44.40
2018-08-30T17:35:33.273Z,44.50
2018-08-30T17:37:59.626Z,44.65
2018-08-30T17:40:26.031Z,44.64
2018-08-30T17:42:52.359Z,44.71
2018-08-30T17:45:18.831Z,44.79
2018-08-30T17:47:45.133Z,44.80
2018-08-30T17:50:11.548Z,44.87
2018-08-30T17:52:37.946Z,44.89
2018-08-30T17:55:04.295Z,45.04
2018-08-30T17:57:30.723Z,45.08
2018-08-30T17:59:57.124Z,45.17
2018-08-30T18:02:23.633Z,45.27
2018-08-30T18:04:50.022Z,45.35
2018-08-30T18:07:16.453Z,45.44
2018-08-30T18:09:42.734Z,45.51
2018-08-30T18:12:09.147Z,45.61
2018-08-30T18:14:35.511Z,45.74
2018-08-30T18:17:01.889Z,45.69
2018-08-30T18:19:28.491Z,45.78
2018-08-30T18:21:54.825Z,45.93
2018-08-30T18:24:21.326Z,46.00
2018-08-30T18:26:47.641Z,46.04
2018-08-30T18:29:14.041Z,46.00
2018-08-30T18:31:40.386Z,46.08
2018-08-30T18:34:06.830Z,46.13
2018-08-30T18:36:33.699Z,46.22
2018-08-30T18:39:00.051Z,46.32
2018-08-30T18:41:26.544Z,46.32
2018-08-30T18:43:52.877Z,46.46
2018-08-30T18:46:19.254Z,46.53
2018-08-30T18:48:45.597Z,46.54
2018-08-30T18:51:12.009Z,46.64
2018-08-30T18:53:38.391Z,46.69
2018-08-30T18:56:04.735Z,46.75
2018-08-30T18:58:31.064Z,46.84
2018-08-30T19:00:57.396Z,46.90
2018-08-30T19:03:23.719Z,46.93
2018-08-30T19:05:50.139Z,46.99
2018-08-30T19:08:16.572Z,47.05
2018-08-30T19:10:43.072Z,47.10
2018-08-30T19:13:09.405Z,47.19
2018-08-30T19:15:35.778Z,47.23
2018-08-30T19:18:02.134Z,47.23
2018-08-30T19:20:28.547Z,47.30
2018-08-30T19:22:54.942Z,47.26
2018-08-30T19:25:21.287Z,47.34
2018-08-30T19:27:47.823Z,47.39
2018-08-30T19:30:14.157Z,47.46
2018-08-30T19:32:40.653Z,47.44
2018-08-30T19:35:06.980Z,47.46
2018-08-30T19:37:33.488Z,47.48
2018-08-30T19:39:59.893Z,47.53
2018-08-30T19:42:26.301Z,47.55
2018-08-30T19:44:52.711Z,47.65
2018-08-30T19:47:19.083Z,47.66
2018-08-30T19:49:45.440Z,47.65
2018-08-30T19:52:11.807Z,47.72
2018-08-30T19:54:38.216Z,47.75
2018-08-30T19:57:04.625Z,47.75
2018-08-30T19:59:30.967Z,47.81
2018-08-30T20:01:57.366Z,47.82
2018-08-30T20:04:23.701Z,47.82
2018-08-30T20:06:50.047Z,47.83
2018-08-30T20:09:16.448Z,47.81
2018-08-30T20:11:42.767Z,47.83
2018-08-30T20:14:09.152Z,47.88
2018-08-30T20:16:35.516Z,47.86
2018-08-30T20:19:01.901Z,47.85
2018-08-30T20:21:28.253Z,47.92
2018-08-30T20:23:54.595Z,47.86
2018-08-30T20:26:20.973Z,47.99
2018-08-30T20:28:47.319Z,48.00
2018-08-30T20:31:13.722Z,48.01
2018-08-30T20:33:40.163Z,47.99
2018-08-30T20:36:06.543Z,47.93
2018-08-30T20:38:32.879Z,47.95
2018-08-30T20:40:59.214Z,47.95
2018-08-30T20:43:25.571Z,48.03
2018-08-30T20:45:51.934Z,48.09
2018-08-30T20:48:18.255Z,48.08
2018-08-30T20:50:44.647Z,48.01
2018-08-30T20:53:10.979Z,47.92
2018-08-30T20:55:37.359Z,48.10
2018-08-30T20:58:03.726Z,48.12
2018-08-30T21:00:30.062Z,48.13
2018-08-30T21:02:56.404Z,48.10
2018-08-30T21:05:22.770Z,48.07
2018-08-30T21:07:49.177Z,48.09
2018-08-30T21:10:15.604Z,48.23
2018-08-30T21:12:42.019Z,48.24
2018-08-30T21:15:08.344Z,48.23
2018-08-30T21:17:34.731Z,48.16
2018-08-30T21:20:01.111Z,48.20
2018-08-30T21:22:27.441Z,48.17
2018-08-30T21:24:53.791Z,48.15
2018-08-30T21:27:20.119Z,48.30
2018-08-30T21:29:46.468Z,48.25
2018-08-30T21:32:12.838Z,48.30
2018-08-30T21:34:39.232Z,48.26
2018-08-30T21:37:05.601Z,48.32
2018-08-30T21:39:32.026Z,48.30
2018-08-30T21:41:58.411Z,48.33
2018-08-30T21:44:24.763Z,48.35
2018-08-30T21:46:51.107Z,48.27
2018-08-30T21:49:17.512Z,48.24
2018-08-30T21:51:43.872Z,48.37
2018-08-30T21:54:10.305Z,48.42
2018-08-30T21:56:36.647Z,48.45
2018-08-30T21:59:03.063Z,48.38
2018-08-30T22:01:29.420Z,48.42
2018-08-30T22:03:55.750Z,48.45
2018-08-30T22:06:22.092Z,48.51
2018-08-30T22:08:48.441Z,48.45
2018-08-30T22:11:14.861Z,48.46
2018-08-30T22:13:41.198Z,48.45
2018-08-30T22:16:07.579Z,48.42
2018-08-30T22:18:33.923Z,48.40
2018-08-30T22:21:00.243Z,48.49
2018-08-30T22:23:26.607Z,48.38
2018-08-30T22:25:52.936Z,48.56
2018-08-30T22:28:19.491Z,48.58
2018-08-30T22:30:45.899Z,48.56
2018-08-30T22:33:12.328Z,48.58
2018-08-30T22:35:38.725Z,48.58
2018-08-30T22:38:05.107Z,48.56
2018-08-30T22:40:31.544Z,48.51
2018-08-30T22:42:57.873Z,48.56
2018-08-30T22:45:24.234Z,48.65
2018-08-30T22:47:50.624Z,48.53
2018-08-30T22:50:17.006Z,48.53
2018-08-30T22:52:43.545Z,48.55
2018-08-30T22:55:09.985Z,48.53
2018-08-30T22:57:36.353Z,48.56
2018-08-30T23:00:02.742Z,48.67
2018-08-30T23:02:29.085Z,48.65
2018-08-30T23:04:55.476Z,48.59
2018-08-30T23:07:21.796Z,48.57
2018-08-30T23:09:48.121Z,48.60
2018-08-30T23:12:14.456Z,48.65
2018-08-30T23:14:40.809Z,48.54
2018-08-30T23:17:07.193Z,48.72
2018-08-30T23:19:33.576Z,48.66
2018-08-30T23:21:59.959Z,48.70
2018-08-30T23:24:26.300Z,48.63
2018-08-30T23:26:52.635Z,48.65
2018-08-30T23:29:18.963Z,48.72
2018-08-30T23:31:45.344Z,48.71
2018-08-30T23:34:11.766Z,48.71
2018-08-30T23:36:38.107Z,48.65
2018-08-30T23:39:04.489Z,48.60
2018-08-30T23:41:30.823Z,48.66
2018-08-30T23:43:57.163Z,48.63
2018-08-30T23:46:23.536Z,48.67
2018-08-30T23:48:49.876Z,48.67
2018-08-30T23:51:16.273Z,48.73
2018-08-30T23:53:42.675Z,48.67
2018-08-30T23:56:09.019Z,48.72
2018-08-30T23:58:35.424Z,48.64
